createdAt,value
2019-03-10T00:00:22.210Z,78.67
2019-03-10T00:01:26.212Z,78.67
2019-03-10T00:03:53.949Z,77.53
2019-03-10T00:04:53.971Z,77.24
2019-03-10T00:06:14.953Z,76.86
2019-03-10T00:06:58.386Z,77.05
2019-03-10T00:07:54.454Z,77.34
2019-03-10T00:08:54.458Z,76.67
2019-03-10T00:09:54.451Z,76.86
2019-03-10T00:10:54.955Z,77.05
2019-03-10T00:11:58.951Z,78.29
2019-03-10T00:12:54.954Z,77.24
2019-03-10T00:13:54.951Z,76.20
2019-03-10T00:15:16.451Z,76.96
2019-03-10T00:15:55.452Z,76.86
2019-03-10T00:16:55.452Z,76.96
2019-03-10T00:17:58.951Z,76.48
2019-03-10T00:18:55.961Z,76.29
2019-03-10T00:19:56.009Z,76.39
2019-03-10T00:20:55.951Z,76.10
2019-03-10T00:21:55.950Z,76.20
2019-03-10T00:22:59.951Z,76.29
2019-03-10T00:23:56.449Z,76.01
2019-03-10T00:24:56.454Z,76.10
2019-03-10T00:25:56.463Z,75.53
2019-03-10T00:28:31.680Z,76.01
2019-03-10T00:29:28.188Z,76.29
2019-03-10T00:30:28.195Z,76.39
2019-03-10T00:31:28.689Z,76.57
2019-03-10T00:32:28.691Z,76.20
2019-03-10T00:33:32.690Z,76.48
2019-03-10T00:34:28.689Z,76.01
2019-03-10T00:35:29.189Z,76.29
2019-03-10T00:36:29.198Z,76.86
2019-03-10T00:37:29.191Z,76.39
2019-03-10T00:38:54.187Z,76.01
2019-03-10T00:39:29.693Z,76.76
2019-03-10T00:40:29.698Z,77.15
2019-03-10T00:41:29.688Z,76.96
2019-03-10T00:42:29.689Z,76.67
2019-03-10T00:43:51.191Z,76.20
2019-03-10T00:44:33.689Z,76.76
2019-03-10T00:45:30.203Z,76.48
2019-03-10T00:46:51.187Z,76.86
2019-03-10T00:49:01.925Z,76.48
2019-03-10T00:50:05.444Z,76.76
2019-03-10T00:51:01.931Z,76.20
2019-03-10T00:52:23.444Z,76.86
2019-03-10T00:53:03.866Z,76.76
2019-03-10T00:54:02.433Z,76.76
2019-03-10T00:55:02.431Z,76.67
2019-03-10T00:56:27.434Z,77.05
2019-03-10T00:57:03.865Z,76.76
2019-03-10T00:58:02.934Z,76.86
2019-03-10T00:59:02.927Z,77.05
2019-03-10T01:00:04.389Z,76.86
2019-03-10T01:01:27.932Z,76.67
2019-03-10T01:02:04.865Z,76.29
2019-03-10T01:03:03.435Z,76.29
2019-03-10T01:04:03.430Z,76.48
2019-03-10T01:05:03.433Z,76.96
2019-03-10T01:06:06.864Z,76.29
2019-03-10T01:07:07.432Z,75.91
2019-03-10T01:08:03.930Z,76.01
2019-03-10T01:09:03.940Z,76.20
2019-03-10T01:10:06.430Z,77.72
2019-03-10T01:11:04.432Z,77.34
2019-03-10T01:12:28.936Z,77.62
2019-03-10T01:13:04.437Z,78.38
2019-03-10T01:14:25.930Z,77.62
2019-03-10T01:15:25.930Z,77.91
2019-03-10T01:16:25.931Z,77.81
2019-03-10T01:17:29.431Z,77.62
2019-03-10T01:19:36.677Z,77.05
2019-03-10T01:22:08.152Z,76.20
2019-03-10T01:23:12.157Z,76.76
2019-03-10T01:24:08.161Z,77.72
2019-03-10T01:25:29.659Z,77.91
2019-03-10T01:26:08.665Z,78.00
2019-03-10T01:27:08.659Z,77.62
2019-03-10T01:28:08.658Z,77.43
2019-03-10T01:29:13.216Z,78.19
2019-03-10T01:30:09.164Z,78.00
2019-03-10T01:31:09.157Z,78.67
2019-03-10T01:32:09.158Z,77.81
2019-03-10T01:33:11.657Z,78.48
2019-03-10T01:34:09.661Z,78.57
2019-03-10T01:35:12.657Z,79.14
2019-03-10T01:36:09.659Z,78.57
2019-03-10T01:37:10.155Z,79.43
2019-03-10T01:38:10.157Z,79.24
2019-03-10T01:39:10.156Z,79.43
2019-03-10T01:41:46.385Z,78.67
2019-03-10T01:42:45.451Z,78.10
2019-03-10T01:43:45.448Z,78.86
2019-03-10T01:44:45.953Z,79.33
2019-03-10T01:45:49.452Z,79.24
2019-03-10T01:47:06.957Z,79.43
2019-03-10T01:47:45.950Z,79.72
2019-03-10T01:48:46.450Z,79.33
2019-03-10T01:49:46.450Z,79.81
2019-03-10T01:50:46.449Z,79.24
2019-03-10T01:51:51.387Z,78.57
2019-03-10T01:52:48.419Z,79.24
2019-03-10T01:53:46.957Z,78.96
2019-03-10T01:54:46.955Z,79.05
2019-03-10T01:55:46.948Z,78.67
2019-03-10T01:56:50.951Z,79.05
2019-03-10T01:57:47.452Z,79.33
2019-03-10T01:58:48.385Z,78.96
2019-03-10T01:59:50.408Z,78.96
2019-03-10T02:02:25.512Z,79.33
2019-03-10T02:03:19.149Z,79.14
2019-03-10T02:04:19.147Z,79.43
2019-03-10T02:05:40.657Z,79.24
2019-03-10T02:06:19.649Z,79.72
2019-03-10T02:07:23.649Z,79.96
2019-03-10T02:08:19.649Z,79.86
2019-03-10T02:09:20.154Z,80.29
2019-03-10T02:10:20.153Z,80.29
2019-03-10T02:11:20.153Z,80.57
2019-03-10T02:12:20.155Z,80.47
2019-03-10T02:14:55.077Z,81.52
2019-03-10T02:15:55.081Z,81.71
2019-03-10T02:16:55.085Z,80.86
2019-03-10T02:17:55.583Z,81.33
2019-03-10T02:18:59.588Z,81.14
2019-03-10T02:19:55.581Z,81.52
2019-03-10T02:21:16.583Z,81.14
2019-03-10T02:23:27.354Z,81.52
2019-03-10T02:24:30.825Z,81.90
2019-03-10T02:25:27.319Z,81.81
2019-03-10T02:26:48.825Z,81.81
2019-03-10T02:27:28.759Z,81.90
2019-03-10T02:28:27.886Z,81.81
2019-03-10T02:29:52.825Z,81.90
2019-03-10T02:30:28.332Z,82.57
2019-03-10T02:31:28.329Z,82.38
2019-03-10T02:32:28.325Z,82.28
2019-03-10T02:33:28.325Z,82.38
2019-03-10T02:34:32.326Z,82.09
2019-03-10T02:35:30.260Z,82.57
2019-03-10T02:36:28.826Z,82.76
2019-03-10T02:37:28.833Z,83.14
2019-03-10T02:38:50.323Z,82.95
2019-03-10T02:39:29.333Z,83.42
2019-03-10T02:40:54.325Z,83.52
2019-03-10T02:41:29.334Z,83.33
2019-03-10T02:44:22.566Z,83.90
2019-03-10T02:45:22.594Z,83.42
2019-03-10T02:47:57.255Z,82.95
2019-03-10T02:48:36.261Z,82.57
2019-03-10T02:49:36.261Z,83.42
2019-03-10T02:50:57.763Z,83.71
2019-03-10T02:52:01.259Z,83.71
2019-03-10T02:52:36.761Z,83.42
2019-03-10T02:53:37.694Z,83.90
2019-03-10T02:54:58.264Z,83.33
2019-03-10T02:55:37.266Z,83.23
2019-03-10T02:56:37.264Z,83.42
2019-03-10T02:57:41.265Z,83.52
2019-03-10T03:00:08.991Z,83.04
2019-03-10T03:01:09.000Z,83.71
2019-03-10T03:02:09.010Z,83.62
2019-03-10T03:03:13.036Z,83.65
2019-03-10T03:04:09.497Z,83.33
2019-03-10T03:05:09.498Z,83.04
2019-03-10T03:06:09.498Z,82.67
2019-03-10T03:07:10.001Z,82.76
2019-03-10T03:08:16.444Z,82.28
2019-03-10T03:09:09.997Z,82.48
2019-03-10T03:10:09.997Z,82.00
2019-03-10T03:11:11.496Z,82.19
2019-03-10T03:12:10.499Z,82.19
2019-03-10T03:13:14.497Z,82.99
2019-03-10T03:14:10.505Z,82.48
2019-03-10T03:16:42.232Z,83.52
2019-03-10T03:17:42.238Z,83.71
2019-03-10T03:18:46.239Z,83.90
2019-03-10T03:19:44.189Z,82.95
2019-03-10T03:20:42.737Z,83.62
2019-03-10T03:21:43.871Z,83.42
2019-03-10T03:22:42.740Z,83.23
2019-03-10T03:23:46.239Z,82.95
2019-03-10T03:24:43.245Z,82.19
2019-03-10T03:25:43.237Z,82.38
2019-03-10T03:26:43.306Z,82.28
2019-03-10T03:27:43.253Z,82.09
2019-03-10T03:28:47.241Z,83.23
2019-03-10T03:29:43.748Z,83.14
2019-03-10T03:30:43.738Z,83.75
2019-03-10T03:31:43.742Z,83.85
2019-03-10T03:32:44.246Z,83.42
2019-03-10T03:33:44.246Z,83.23
2019-03-10T03:34:48.315Z,83.42
2019-03-10T03:35:44.238Z,82.95
2019-03-10T03:36:44.738Z,83.14
2019-03-10T03:40:53.518Z,82.57
2019-03-10T03:41:47.521Z,82.14
2019-03-10T03:42:47.528Z,82.57
2019-03-10T03:43:48.033Z,83.04
2019-03-10T03:44:50.015Z,82.57
2019-03-10T03:45:48.019Z,83.28
2019-03-10T03:48:43.743Z,81.43
2019-03-10T03:49:22.756Z,82.28
2019-03-10T03:50:22.749Z,83.04
2019-03-10T03:51:44.317Z,82.99
2019-03-10T03:52:26.751Z,82.67
2019-03-10T03:53:23.249Z,82.42
2019-03-10T03:54:23.250Z,83.23
2019-03-10T03:55:23.758Z,83.28
2019-03-10T03:56:23.749Z,82.95
2019-03-10T03:57:27.253Z,83.33
2019-03-10T03:58:44.748Z,82.57
2019-03-10T03:59:45.252Z,82.95
2019-03-10T04:00:45.250Z,83.75
2019-03-10T04:01:24.248Z,83.62
2019-03-10T04:03:59.718Z,83.52
2019-03-10T04:04:59.731Z,83.62
2019-03-10T04:05:59.734Z,83.71
2019-03-10T04:07:01.169Z,83.81
2019-03-10T04:08:04.226Z,83.62
2019-03-10T04:09:00.233Z,82.57
2019-03-10T04:10:00.440Z,83.42
2019-03-10T04:11:00.225Z,84.04
2019-03-10T04:13:35.467Z,83.62
2019-03-10T04:14:31.966Z,83.71
2019-03-10T04:15:53.478Z,83.23
2019-03-10T04:16:32.471Z,83.23
2019-03-10T04:17:32.477Z,83.04
2019-03-10T04:18:40.407Z,83.33
2019-03-10T04:19:32.966Z,84.28
2019-03-10T04:20:53.967Z,84.38
2019-03-10T04:21:32.975Z,83.71
2019-03-10T04:22:32.972Z,83.81
2019-03-10T04:23:57.973Z,84.09
2019-03-10T04:24:54.466Z,84.66
2019-03-10T04:25:54.466Z,84.00
2019-03-10T04:26:33.466Z,84.56
2019-03-10T04:27:54.973Z,84.89
2019-03-10T04:28:35.399Z,85.04
2019-03-10T04:29:37.966Z,85.71
2019-03-10T04:30:33.966Z,84.95
2019-03-10T04:33:05.703Z,86.09
2019-03-10T04:34:07.713Z,86.38
2019-03-10T04:35:09.713Z,86.47
2019-03-10T04:36:06.232Z,86.38
2019-03-10T04:37:06.207Z,85.71
2019-03-10T04:38:06.209Z,85.33
2019-03-10T04:39:06.214Z,85.99
2019-03-10T04:40:06.707Z,86.76
2019-03-10T04:41:12.142Z,87.23
2019-03-10T04:42:06.707Z,87.90
2019-03-10T04:43:06.707Z,88.09
2019-03-10T04:44:07.215Z,87.99
2019-03-10T04:45:07.207Z,88.37
2019-03-10T04:46:07.208Z,88.66
2019-03-10T04:47:10.714Z,89.42
2019-03-10T04:48:07.715Z,89.61
2019-03-10T04:49:07.706Z,89.70
2019-03-10T04:50:07.709Z,89.42
2019-03-10T04:51:07.707Z,89.04
2019-03-10T04:52:32.706Z,88.37
2019-03-10T04:53:08.206Z,87.71
2019-03-10T04:54:08.208Z,87.71
2019-03-10T04:55:08.220Z,88.28
2019-03-10T04:57:43.436Z,88.18
2019-03-10T04:58:39.951Z,88.56
2019-03-10T04:59:39.949Z,88.09
2019-03-10T05:02:32.686Z,89.42
2019-03-10T05:03:14.690Z,89.80
2019-03-10T05:04:11.656Z,90.14
2019-03-10T05:05:12.188Z,89.94
2019-03-10T05:06:12.192Z,89.94
2019-03-10T05:07:12.215Z,89.94
2019-03-10T05:08:16.224Z,89.85
2019-03-10T05:09:12.187Z,90.04
2019-03-10T05:10:12.188Z,90.61
2019-03-10T05:14:18.849Z,91.66
2019-03-10T05:15:15.345Z,91.94
2019-03-10T05:16:15.347Z,92.32
2019-03-10T05:18:47.083Z,92.51
2019-03-10T05:20:11.585Z,92.70
2019-03-10T05:20:47.086Z,92.80
2019-03-10T05:21:47.585Z,92.70
2019-03-10T05:22:47.585Z,93.18
2019-03-10T05:23:47.592Z,92.89
2019-03-10T05:25:12.586Z,88.19
2019-03-10T05:25:48.086Z,84.91
2019-03-10T05:26:48.087Z,85.43
2019-03-10T05:27:48.083Z,87.28
2019-03-10T05:28:48.085Z,88.23
2019-03-10T05:29:48.585Z,89.18
2019-03-10T05:30:52.584Z,89.18
2019-03-10T05:31:48.585Z,89.90
2019-03-10T05:32:48.585Z,89.52
2019-03-10T05:33:49.086Z,88.95
2019-03-10T05:34:49.085Z,89.80
2019-03-10T05:35:49.086Z,90.23
2019-03-10T05:36:53.519Z,90.19
2019-03-10T05:37:54.019Z,89.71
2019-03-10T05:38:49.595Z,90.85
2019-03-10T05:39:49.588Z,91.23
2019-03-10T05:40:49.591Z,91.04
2019-03-10T05:41:54.085Z,90.85
2019-03-10T05:42:50.085Z,91.33
2019-03-10T05:43:50.091Z,92.85
2019-03-10T05:44:50.087Z,91.99
2019-03-10T05:45:50.616Z,90.09
2019-03-10T05:46:50.584Z,91.33
2019-03-10T05:47:54.087Z,91.71
2019-03-10T05:48:50.583Z,92.27
2019-03-10T05:49:51.091Z,92.75
2019-03-10T05:50:51.084Z,92.75
2019-03-10T05:52:12.084Z,92.27
2019-03-10T05:52:54.091Z,92.46
2019-03-10T05:54:12.587Z,92.37
2019-03-10T05:55:12.592Z,92.66
2019-03-10T05:55:52.518Z,92.27
2019-03-10T05:56:51.583Z,92.18
2019-03-10T05:57:55.083Z,90.85
2019-03-10T05:58:52.081Z,91.04
2019-03-10T05:59:52.094Z,92.46
2019-03-10T06:00:52.083Z,92.66
2019-03-10T06:01:52.583Z,93.04
2019-03-10T06:02:56.587Z,93.41
2019-03-10T06:03:52.588Z,93.79
2019-03-10T06:04:52.583Z,93.89
2019-03-10T06:05:53.082Z,93.99
2019-03-10T06:06:53.084Z,93.79
2019-03-10T06:07:53.086Z,93.60
2019-03-10T06:09:17.586Z,90.66
2019-03-10T06:09:53.591Z,92.46
2019-03-10T06:10:53.583Z,92.94
2019-03-10T06:11:53.583Z,93.60
2019-03-10T06:12:53.582Z,93.70
2019-03-10T06:13:57.582Z,94.18
2019-03-10T06:15:15.090Z,93.99
2019-03-10T06:16:15.081Z,94.18
2019-03-10T06:16:54.082Z,94.08
2019-03-10T06:18:15.588Z,94.84
2019-03-10T06:18:54.579Z,94.37
2019-03-10T06:19:58.580Z,94.37
2019-03-10T06:20:54.593Z,94.08
2019-03-10T06:23:26.816Z,94.89
2019-03-10T06:26:01.675Z,94.79
2019-03-10T06:26:58.190Z,94.03
2019-03-10T06:28:20.115Z,94.23
2019-03-10T06:29:19.680Z,94.56
2019-03-10T06:29:58.680Z,94.84
2019-03-10T06:31:02.680Z,95.22
2019-03-10T06:31:58.680Z,96.08
2019-03-10T06:33:01.180Z,95.98
2019-03-10T06:33:59.180Z,95.98
2019-03-10T06:34:59.181Z,95.89
2019-03-10T06:35:59.181Z,95.98
2019-03-10T06:37:02.680Z,93.04
2019-03-10T06:37:59.679Z,91.33
2019-03-10T06:38:59.680Z,91.80
2019-03-10T06:39:59.679Z,93.41
2019-03-10T06:41:00.179Z,93.70
2019-03-10T06:42:04.179Z,93.99
2019-03-10T06:43:00.179Z,95.12
2019-03-10T06:44:21.272Z,95.32
2019-03-10T06:45:00.679Z,95.12
2019-03-10T06:46:00.679Z,94.27
2019-03-10T06:47:25.179Z,94.46
2019-03-10T06:48:00.688Z,94.74
2019-03-10T06:49:01.185Z,94.37
2019-03-10T06:50:01.179Z,94.56
2019-03-10T06:51:01.205Z,94.08
2019-03-10T06:52:01.180Z,95.32
2019-03-10T06:53:26.179Z,94.08
2019-03-10T06:54:01.686Z,94.56
2019-03-10T06:55:01.683Z,94.18
2019-03-10T06:56:01.679Z,94.27
2019-03-10T06:58:36.409Z,95.51
2019-03-10T06:59:33.427Z,95.60
2019-03-10T07:00:33.419Z,95.41
2019-03-10T07:01:33.918Z,95.60
2019-03-10T07:02:34.885Z,95.70
2019-03-10T07:03:37.918Z,95.41
2019-03-10T07:04:33.914Z,95.60
2019-03-10T07:05:34.418Z,95.41
2019-03-10T07:06:37.386Z,95.60
2019-03-10T07:07:34.418Z,95.22
2019-03-10T07:08:34.421Z,95.22
2019-03-10T07:09:59.923Z,95.32
2019-03-10T07:10:34.920Z,95.89
2019-03-10T07:11:34.919Z,95.98
2019-03-10T07:12:34.917Z,95.70
2019-03-10T07:13:35.442Z,95.98
2019-03-10T07:14:35.417Z,95.70
2019-03-10T07:15:46.352Z,95.79
2019-03-10T07:16:35.419Z,96.26
2019-03-10T07:17:35.961Z,96.17
2019-03-10T07:18:35.920Z,96.45
2019-03-10T07:19:35.926Z,95.70
2019-03-10T07:20:39.926Z,95.79
2019-03-10T07:21:36.422Z,96.17
2019-03-10T07:22:36.417Z,95.98
2019-03-10T07:23:36.419Z,96.65
2019-03-10T07:24:36.413Z,96.26
2019-03-10T07:25:36.917Z,96.45
2019-03-10T07:26:39.932Z,96.36
2019-03-10T07:27:36.917Z,95.89
2019-03-10T07:28:36.916Z,95.70
2019-03-10T07:29:37.417Z,95.51
2019-03-10T07:30:37.419Z,95.12
2019-03-10T07:31:39.916Z,95.32
2019-03-10T07:32:37.416Z,95.60
2019-03-10T07:33:37.917Z,95.51
2019-03-10T07:34:37.919Z,95.98
2019-03-10T07:35:37.920Z,95.98
2019-03-10T07:37:02.417Z,95.32
2019-03-10T07:37:38.417Z,95.51
2019-03-10T07:40:10.270Z,95.03
2019-03-10T07:42:45.128Z,94.27
2019-03-10T07:44:03.137Z,95.32
2019-03-10T07:44:44.071Z,96.08
2019-03-10T07:45:42.139Z,96.36
2019-03-10T07:46:42.141Z,95.70
2019-03-10T07:47:46.638Z,95.60
2019-03-10T07:48:42.645Z,95.70
2019-03-10T07:49:42.635Z,96.65
2019-03-10T07:50:42.636Z,96.74
2019-03-10T07:51:43.137Z,97.50
2019-03-10T07:52:43.136Z,97.60
2019-03-10T07:53:46.635Z,96.93
2019-03-10T07:54:43.140Z,96.31
2019-03-10T07:55:44.570Z,96.45
2019-03-10T07:56:43.636Z,96.93
2019-03-10T07:57:43.636Z,96.26
2019-03-10T07:58:47.636Z,96.65
2019-03-10T07:59:44.136Z,96.45
2019-03-10T08:00:44.150Z,96.08
2019-03-10T08:01:44.136Z,96.45
2019-03-10T08:02:44.135Z,96.45
2019-03-10T08:04:10.590Z,96.26
2019-03-10T08:04:44.644Z,97.22
2019-03-10T08:05:44.636Z,96.65
2019-03-10T08:06:44.635Z,96.65
2019-03-10T08:07:44.635Z,95.70
2019-03-10T08:08:45.134Z,96.17
2019-03-10T08:09:48.635Z,96.08
2019-03-10T08:10:45.138Z,96.65
2019-03-10T08:11:45.145Z,97.12
2019-03-10T08:12:45.636Z,97.03
2019-03-10T08:13:45.637Z,96.45
2019-03-10T08:14:45.640Z,96.36
2019-03-10T08:15:49.644Z,96.45
2019-03-10T08:16:46.136Z,96.17
2019-03-10T08:19:17.518Z,95.98
2019-03-10T08:20:17.503Z,96.36
2019-03-10T08:21:21.501Z,95.70
2019-03-10T08:22:17.997Z,95.60
2019-03-10T08:23:39.003Z,95.94
2019-03-10T08:24:39.044Z,95.79
2019-03-10T08:25:18.006Z,95.65
2019-03-10T08:26:42.499Z,95.94
2019-03-10T08:27:39.500Z,96.12
2019-03-10T08:28:20.309Z,96.41
2019-03-10T08:29:18.505Z,96.31
2019-03-10T08:30:18.500Z,95.75
2019-03-10T08:32:53.781Z,95.75
2019-03-10T08:33:50.274Z,95.94
2019-03-10T08:34:50.243Z,95.46
2019-03-10T08:37:22.474Z,95.17
2019-03-10T08:38:26.483Z,95.17
2019-03-10T08:39:22.482Z,95.27
2019-03-10T08:40:22.483Z,95.75
2019-03-10T08:41:22.983Z,95.36
2019-03-10T08:42:23.015Z,95.27
2019-03-10T08:43:22.984Z,95.46
2019-03-10T08:44:26.483Z,95.65
2019-03-10T08:45:23.482Z,96.03
2019-03-10T08:46:23.483Z,96.89
2019-03-10T08:47:23.494Z,96.41
2019-03-10T08:48:23.486Z,95.94
2019-03-10T08:49:27.482Z,95.56
2019-03-10T08:50:23.982Z,95.65
2019-03-10T08:51:23.989Z,95.46
2019-03-10T08:52:24.011Z,95.94
2019-03-10T08:53:24.485Z,96.12
2019-03-10T08:54:24.482Z,96.12
2019-03-10T08:55:28.482Z,95.36
2019-03-10T08:56:24.482Z,95.75
2019-03-10T08:57:24.991Z,95.75
2019-03-10T08:58:24.981Z,95.36
2019-03-10T08:59:45.980Z,94.98
2019-03-10T09:00:24.986Z,95.27
2019-03-10T09:01:28.485Z,94.22
2019-03-10T09:02:25.487Z,94.42
2019-03-10T09:03:25.483Z,93.94
2019-03-10T09:04:25.490Z,94.51
2019-03-10T09:05:46.982Z,95.36
2019-03-10T09:06:29.982Z,95.75
2019-03-10T09:07:25.985Z,95.75
2019-03-10T09:08:26.047Z,95.65
2019-03-10T09:09:26.479Z,94.98
2019-03-10T09:10:26.481Z,95.36
2019-03-10T09:11:26.486Z,95.56
2019-03-10T09:12:30.487Z,96.03
2019-03-10T09:13:26.981Z,95.84
2019-03-10T09:14:26.982Z,96.60
2019-03-10T09:15:26.984Z,97.27
2019-03-10T09:16:26.982Z,96.79
2019-03-10T09:17:50.982Z,96.79
2019-03-10T09:18:48.487Z,96.79
2019-03-10T09:19:27.482Z,96.79
2019-03-10T09:20:27.524Z,96.50
2019-03-10T09:21:31.415Z,95.65
2019-03-10T09:22:29.454Z,95.36
2019-03-10T09:23:52.990Z,94.98
2019-03-10T09:24:27.980Z,95.17
2019-03-10T09:25:49.008Z,96.22
2019-03-10T09:26:28.478Z,96.31
2019-03-10T09:27:51.418Z,96.03
2019-03-10T09:28:28.487Z,96.50
2019-03-10T09:31:03.218Z,96.89
2019-03-10T09:32:24.220Z,97.17
2019-03-10T09:33:03.230Z,97.55
2019-03-10T09:34:03.750Z,97.74
2019-03-10T09:35:27.723Z,97.08
2019-03-10T09:36:03.732Z,97.08
2019-03-10T09:37:03.727Z,96.69
2019-03-10T09:38:04.256Z,96.55
2019-03-10T09:39:04.232Z,95.94
2019-03-10T09:40:04.228Z,96.22
2019-03-10T09:41:08.722Z,96.12
2019-03-10T09:42:04.729Z,96.03
2019-03-10T09:43:25.728Z,96.17
2019-03-10T09:44:04.723Z,96.26
2019-03-10T09:45:04.723Z,96.36
2019-03-10T09:46:29.720Z,96.08
2019-03-10T09:47:05.222Z,96.26
2019-03-10T09:48:26.255Z,96.17
2019-03-10T09:49:26.223Z,96.17
2019-03-10T09:50:05.747Z,96.46
2019-03-10T09:51:05.746Z,96.55
2019-03-10T09:52:09.719Z,96.74
2019-03-10T09:53:05.729Z,96.46
2019-03-10T09:54:06.225Z,95.70
2019-03-10T09:55:06.225Z,95.70
2019-03-10T09:56:06.225Z,96.36
2019-03-10T09:57:06.230Z,96.46
2019-03-10T09:58:09.722Z,96.65
2019-03-10T09:59:27.721Z,96.36
2019-03-10T10:00:06.722Z,95.98
2019-03-10T10:01:06.718Z,96.36
2019-03-10T10:02:09.222Z,95.89
2019-03-10T10:03:10.719Z,96.55
2019-03-10T10:04:07.222Z,96.74
2019-03-10T10:05:07.221Z,97.03
2019-03-10T10:07:59.953Z,97.13
2019-03-10T10:09:03.467Z,97.17
2019-03-10T10:09:38.963Z,96.89
2019-03-10T10:10:39.469Z,97.84
2019-03-10T10:11:39.463Z,98.13
2019-03-10T10:12:39.458Z,97.65
2019-03-10T10:13:43.463Z,98.03
2019-03-10T10:15:00.963Z,98.32
2019-03-10T10:16:00.962Z,98.03
2019-03-10T10:17:00.963Z,97.17
2019-03-10T10:18:00.962Z,97.17
2019-03-10T10:19:04.962Z,97.93
2019-03-10T10:19:40.465Z,97.55
2019-03-10T10:20:40.464Z,98.69
2019-03-10T10:21:41.435Z,98.13
2019-03-10T10:24:15.192Z,98.60
2019-03-10T10:25:33.196Z,98.60
2019-03-10T10:26:12.198Z,98.50
2019-03-10T10:27:33.697Z,98.60
2019-03-10T10:28:12.701Z,98.32
2019-03-10T10:29:16.705Z,98.22
2019-03-10T10:30:12.697Z,98.74
2019-03-10T10:31:13.990Z,98.32
2019-03-10T10:32:13.199Z,98.69
2019-03-10T10:33:13.197Z,99.17
2019-03-10T10:34:13.194Z,99.36
2019-03-10T10:35:17.702Z,99.17
2019-03-10T10:36:15.151Z,99.55
2019-03-10T10:37:35.604Z,99.99
2019-03-10T10:38:18.743Z,99.99
2019-03-10T10:39:13.701Z,99.99
2019-03-10T10:40:38.697Z,99.99
2019-03-10T10:41:16.631Z,99.99
2019-03-10T10:42:14.197Z,99.99
2019-03-10T10:43:14.197Z,99.99
2019-03-10T10:44:14.699Z,99.99
2019-03-10T10:45:14.702Z,99.99
2019-03-10T10:46:39.695Z,99.99
2019-03-10T10:47:14.697Z,99.99
2019-03-10T10:48:16.204Z,99.99
2019-03-10T10:49:17.203Z,99.99
2019-03-10T10:50:15.197Z,99.99
2019-03-10T10:51:15.208Z,99.99
2019-03-10T10:52:40.700Z,99.89
2019-03-10T10:53:15.712Z,99.51
2019-03-10T10:54:15.700Z,99.89
2019-03-10T10:55:15.704Z,99.99
2019-03-10T10:56:16.196Z,99.99
2019-03-10T10:57:16.196Z,99.85
2019-03-10T10:58:19.697Z,99.99
2019-03-10T10:59:16.199Z,99.99
2019-03-10T11:00:16.698Z,99.37
2019-03-10T11:01:16.696Z,99.18
2019-03-10T11:02:16.696Z,98.37
2019-03-10T11:03:20.702Z,98.37
2019-03-10T11:04:17.200Z,98.37
2019-03-10T11:05:17.203Z,99.04
2019-03-10T11:06:19.586Z,99.32
2019-03-10T11:07:17.196Z,99.47
2019-03-10T11:08:17.698Z,98.61
2019-03-10T11:09:20.704Z,98.80
2019-03-10T11:10:17.696Z,98.80
2019-03-10T11:11:17.710Z,98.32
2019-03-10T11:12:18.224Z,98.23
2019-03-10T11:13:18.196Z,98.13
2019-03-10T11:14:21.696Z,96.94
2019-03-10T11:15:39.212Z,97.61
2019-03-10T11:16:18.696Z,97.18
2019-03-10T11:17:18.696Z,96.13
2019-03-10T11:18:18.696Z,96.22
2019-03-10T11:19:18.696Z,97.94
2019-03-10T11:20:22.698Z,95.56
2019-03-10T11:21:20.633Z,96.51
2019-03-10T11:22:42.633Z,96.89
2019-03-10T11:23:19.198Z,96.98
2019-03-10T11:24:19.695Z,95.94
2019-03-10T11:25:19.701Z,97.08
2019-03-10T11:26:22.696Z,96.32
2019-03-10T11:27:19.701Z,96.94
2019-03-10T11:29:51.440Z,94.89
2019-03-10T11:30:51.449Z,94.41
2019-03-10T11:31:55.449Z,93.31
2019-03-10T11:32:51.948Z,91.87
2019-03-10T11:33:51.948Z,89.90
2019-03-10T11:34:51.948Z,86.08
2019-03-10T11:35:53.587Z,86.88
2019-03-10T11:36:52.445Z,86.12
2019-03-10T11:37:56.417Z,83.15
2019-03-10T11:38:52.448Z,81.46
2019-03-10T11:39:52.448Z,82.42
2019-03-10T11:40:53.884Z,84.49
2019-03-10T11:41:52.954Z,86.65
2019-03-10T11:42:56.448Z,87.41
2019-03-10T11:43:52.947Z,86.61
2019-03-10T11:44:52.950Z,85.55
2019-03-10T11:45:53.449Z,87.08
2019-03-10T11:47:00.383Z,89.19
2019-03-10T11:47:53.450Z,91.35
2019-03-10T11:49:02.957Z,87.95
2019-03-10T11:49:53.949Z,88.72
2019-03-10T11:50:53.949Z,89.67
2019-03-10T11:51:53.946Z,90.25
2019-03-10T11:52:53.956Z,90.63
2019-03-10T11:53:54.449Z,89.82
2019-03-10T11:54:57.449Z,91.35
2019-03-10T11:55:54.449Z,91.35
2019-03-10T11:56:54.450Z,92.21
2019-03-10T11:57:54.949Z,91.59
2019-03-10T11:58:54.170Z,91.78
2019-03-10T11:59:58.980Z,91.69
2019-03-10T12:00:54.949Z,94.22
2019-03-10T12:02:15.919Z,94.41
2019-03-10T12:02:55.459Z,94.70
2019-03-10T12:03:55.449Z,95.46
2019-03-10T12:04:55.449Z,95.94
2019-03-10T12:05:58.949Z,96.22
2019-03-10T12:06:55.949Z,96.56
2019-03-10T12:07:55.947Z,96.08
2019-03-10T12:08:55.948Z,95.32
2019-03-10T12:09:56.456Z,93.26
2019-03-10T12:10:59.961Z,87.37
2019-03-10T12:11:56.450Z,84.01
2019-03-10T12:12:56.452Z,86.17
2019-03-10T12:13:56.949Z,85.98
2019-03-10T12:14:56.949Z,82.12
2019-03-10T12:15:56.954Z,80.93
2019-03-10T12:17:00.949Z,79.59
2019-03-10T12:18:18.452Z,80.51
2019-03-10T12:18:57.454Z,79.44
2019-03-10T12:19:57.451Z,79.30
2019-03-10T12:20:57.449Z,79.74
2019-03-10T12:21:57.950Z,80.94
2019-03-10T12:23:00.952Z,81.86
2019-03-10T12:23:57.951Z,82.97
2019-03-10T12:24:57.950Z,85.22
2019-03-10T12:29:26.136Z,90.68
2019-03-10T12:30:01.131Z,91.35
2019-03-10T12:31:01.131Z,93.36
2019-03-10T12:32:01.631Z,93.70
2019-03-10T12:33:01.632Z,94.74
2019-03-10T12:34:05.514Z,96.80
2019-03-10T12:35:01.631Z,96.70
2019-03-10T12:36:02.171Z,96.80
2019-03-10T12:37:02.132Z,96.66
2019-03-10T12:38:02.137Z,97.13
2019-03-10T12:39:06.134Z,96.80
2019-03-10T12:40:02.632Z,95.98
2019-03-10T12:41:02.636Z,97.13
2019-03-10T12:42:02.638Z,96.84
2019-03-10T12:43:02.632Z,95.61
2019-03-10T12:44:04.067Z,91.16
2019-03-10T12:45:06.143Z,87.04
2019-03-10T12:46:03.156Z,83.68
2019-03-10T12:47:03.136Z,80.16
2019-03-10T12:48:03.635Z,77.17
2019-03-10T12:49:03.632Z,75.04
2019-03-10T12:50:07.632Z,74.10
2019-03-10T12:51:03.628Z,74.06
2019-03-10T12:52:04.133Z,77.67
2019-03-10T12:53:04.132Z,77.44
2019-03-10T12:54:04.132Z,77.44
2019-03-10T12:55:04.147Z,76.84
2019-03-10T12:57:39.899Z,75.54
2019-03-10T12:58:41.340Z,73.60
2019-03-10T12:59:39.906Z,73.46
2019-03-10T13:01:06.076Z,73.02
2019-03-10T13:01:42.913Z,69.82
2019-03-10T13:03:01.417Z,68.22
2019-03-10T13:03:40.490Z,67.26
2019-03-10T13:04:40.908Z,70.68
2019-03-10T13:06:01.906Z,72.14
2019-03-10T13:06:44.406Z,73.70
2019-03-10T13:07:40.907Z,78.03
2019-03-10T13:09:02.407Z,79.33
2019-03-10T13:09:41.407Z,80.38
2019-03-10T13:10:41.407Z,81.97
2019-03-10T13:11:45.409Z,81.78
2019-03-10T13:13:04.905Z,83.08
2019-03-10T13:14:02.908Z,81.29
2019-03-10T13:16:13.412Z,74.83
2019-03-10T13:17:16.920Z,69.85
2019-03-10T13:18:13.418Z,66.84
2019-03-10T13:20:45.175Z,66.78
2019-03-10T13:21:45.282Z,65.20
2019-03-10T13:22:48.685Z,62.18
2019-03-10T13:24:06.693Z,61.44
2019-03-10T13:24:45.701Z,60.44
2019-03-10T13:25:45.681Z,59.48
2019-03-10T13:26:45.681Z,58.45
2019-03-10T13:27:49.681Z,56.51
2019-03-10T13:28:46.181Z,54.97
2019-03-10T13:29:46.213Z,54.71
2019-03-10T13:30:46.181Z,53.20
2019-03-10T13:31:46.682Z,56.74
2019-03-10T13:32:46.682Z,59.91
2019-03-10T13:34:11.682Z,60.75
2019-03-10T13:34:46.682Z,64.95
2019-03-10T13:35:47.184Z,67.47
2019-03-10T13:36:47.183Z,69.90
2019-03-10T13:38:10.408Z,69.77
2019-03-10T13:38:47.183Z,73.15
2019-03-10T13:39:50.682Z,75.70
2019-03-10T13:40:47.684Z,74.61
2019-03-10T13:41:47.682Z,77.48
2019-03-10T13:42:47.683Z,77.92
2019-03-10T13:43:48.194Z,77.97
2019-03-10T13:45:14.684Z,78.45
2019-03-10T13:45:48.183Z,79.60
2019-03-10T13:46:48.197Z,80.32
2019-03-10T13:47:48.696Z,80.61
2019-03-10T13:48:48.681Z,81.33
2019-03-10T13:49:48.689Z,83.05
2019-03-10T13:50:54.693Z,83.28
2019-03-10T13:51:49.185Z,80.30
2019-03-10T13:54:20.565Z,79.22
2019-03-10T13:55:20.571Z,79.60
2019-03-10T13:56:24.567Z,81.47
2019-03-10T13:57:21.064Z,80.74
2019-03-10T13:58:21.064Z,80.74